sensor_id;sensor_type;location;lat;lon;timestamp;P1;durP1;ratioP1;P2;durP2;ratioP2
1178;SDS011;578;48.408;10.004;2022-07-23T00:01:02;12.60;;;11.60;;
1178;SDS011;578;48.408;10.004;2022-07-23T00:03:28;13.00;;;11.90;;
1178;SDS011;578;48.408;10.004;2022-07-23T00:05:57;13.30;;;12.20;;
1178;SDS011;578;48.408;10.004;2022-07-23T00:08:23;14.87;;;13.47;;
1178;SDS011;578;48.408;10.004;2022-07-23T00:10:50;15.20;;;13.70;;
1178;SDS011;578;48.408;10.004;2022-07-23T00:13:17;15.27;;;13.80;;
1178;SDS011;578;48.408;10.004;2022-07-23T00:15:43;13.70;;;12.60;;
1178;SDS011;578;48.408;10.004;2022-07-23T00:18:10;15.60;;;14.20;;
1178;SDS011;578;48.408;10.004;2022-07-23T00:20:37;14.43;;;13.10;;
1178;SDS011;578;48.408;10.004;2022-07-23T00:23:05;14.80;;;13.50;;
1178;SDS011;578;48.408;10.004;2022-07-23T00:25:31;15.37;;;14.07;;
1178;SDS011;578;48.408;10.004;2022-07-23T00:27:59;15.23;;;13.83;;
1178;SDS011;578;48.408;10.004;2022-07-23T00:30:27;16.30;;;14.90;;
1178;SDS011;578;48.408;10.004;2022-07-23T00:32:56;16.00;;;14.50;;
1178;SDS011;578;48.408;10.004;2022-07-23T00:35:25;15.90;;;14.43;;
1178;SDS011;578;48.408;10.004;2022-07-23T00:37:54;15.97;;;14.53;;
1178;SDS011;578;48.408;10.004;2022-07-23T00:40:22;14.20;;;13.00;;
1178;SDS011;578;48.408;10.004;2022-07-23T00:42:50;14.23;;;12.93;;
1178;SDS011;578;48.408;10.004;2022-07-23T00:45:17;16.23;;;14.80;;
1178;SDS011;578;48.408;10.004;2022-07-23T00:47:44;16.40;;;14.80;;
1178;SDS011;578;48.408;10.004;2022-07-23T00:50:11;15.73;;;14.53;;
1178;SDS011;578;48.408;10.004;2022-07-23T00:52:39;17.50;;;15.90;;
1178;SDS011;578;48.408;10.004;2022-07-23T00:55:07;16.93;;;15.57;;
1178;SDS011;578;48.408;10.004;2022-07-23T00:57:37;16.70;;;15.40;;
1178;SDS011;578;48.408;10.004;2022-07-23T01:00:06;15.10;;;13.90;;
1178;SDS011;578;48.408;10.004;2022-07-23T01:02:35;18.23;;;16.53;;
1178;SDS011;578;48.408;10.004;2022-07-23T01:05:03;16.10;;;14.80;;
1178;SDS011;578;48.408;10.004;2022-07-23T01:07:30;17.10;;;15.53;;
1178;SDS011;578;48.408;10.004;2022-07-23T01:09:57;18.37;;;16.47;;
1178;SDS011;578;48.408;10.004;2022-07-23T01:12:24;17.87;;;16.17;;
1178;SDS011;578;48.408;10.004;2022-07-23T01:14:55;16.47;;;14.97;;
1178;SDS011;578;48.408;10.004;2022-07-23T01:17:23;15.53;;;14.17;;
1178;SDS011;578;48.408;10.004;2022-07-23T01:19:49;17.60;;;16.10;;
1178;SDS011;578;48.408;10.004;2022-07-23T01:22:17;18.13;;;16.10;;
1178;SDS011;578;48.408;10.004;2022-07-23T01:24:46;18.27;;;16.67;;
1178;SDS011;578;48.408;10.004;2022-07-23T01:27:13;16.97;;;15.47;;
1178;SDS011;578;48.408;10.004;2022-07-23T01:29:42;17.97;;;16.37;;
1178;SDS011;578;48.408;10.004;2022-07-23T01:32:09;16.90;;;15.40;;
1178;SDS011;578;48.408;10.004;2022-07-23T01:34:35;18.37;;;16.90;;
1178;SDS011;578;48.408;10.004;2022-07-23T01:37:02;18.70;;;17.10;;
1178;SDS011;578;48.408;10.004;2022-07-23T01:39:29;17.57;;;15.93;;
1178;SDS011;578;48.408;10.004;2022-07-23T01:41:57;17.10;;;15.60;;
1178;SDS011;578;48.408;10.004;2022-07-23T01:44:23;17.50;;;16.00;;
1178;SDS011;578;48.408;10.004;2022-07-23T01:46:50;18.23;;;16.50;;
1178;SDS011;578;48.408;10.004;2022-07-23T01:49:23;18.70;;;16.90;;
1178;SDS011;578;48.408;10.004;2022-07-23T01:51:49;18.93;;;16.77;;
1178;SDS011;578;48.408;10.004;2022-07-23T01:54:25;17.77;;;16.07;;
1178;SDS011;578;48.408;10.004;2022-07-23T01:56:52;18.57;;;16.90;;
1178;SDS011;578;48.408;10.004;2022-07-23T01:59:20;16.47;;;15.17;;
1178;SDS011;578;48.408;10.004;2022-07-23T02:01:47;16.93;;;15.53;;
1178;SDS011;578;48.408;10.004;2022-07-23T02:04:15;17.10;;;15.77;;
1178;SDS011;578;48.408;10.004;2022-07-23T02:06:42;18.20;;;16.47;;
1178;SDS011;578;48.408;10.004;2022-07-23T02:09:09;19.50;;;17.50;;
1178;SDS011;578;48.408;10.004;2022-07-23T02:11:35;18.73;;;17.00;;
1178;SDS011;578;48.408;10.004;2022-07-23T02:14:02;17.67;;;16.00;;
1178;SDS011;578;48.408;10.004;2022-07-23T02:16:31;18.47;;;16.87;;
1178;SDS011;578;48.408;10.004;2022-07-23T02:18:57;17.07;;;15.60;;
1178;SDS011;578;48.408;10.004;2022-07-23T02:21:24;20.20;;;18.43;;
1178;SDS011;578;48.408;10.004;2022-07-23T02:23:51;17.17;;;15.73;;
1178;SDS011;578;48.408;10.004;2022-07-23T02:26:17;19.17;;;17.47;;
1178;SDS011;578;48.408;10.004;2022-07-23T02:28:44;19.37;;;17.60;;
1178;SDS011;578;48.408;10.004;2022-07-23T02:31:11;20.73;;;18.63;;
1178;SDS011;578;48.408;10.004;2022-07-23T02:33:39;21.00;;;18.50;;
1178;SDS011;578;48.408;10.004;2022-07-23T02:36:06;19.30;;;17.60;;
1178;SDS011;578;48.408;10.004;2022-07-23T02:38:32;20.17;;;18.40;;
1178;SDS011;578;48.408;10.004;2022-07-23T02:40:59;19.73;;;18.13;;
1178;SDS011;578;48.408;10.004;2022-07-23T02:43:26;20.60;;;18.60;;
1178;SDS011;578;48.408;10.004;2022-07-23T02:45:52;19.50;;;17.80;;
1178;SDS011;578;48.408;10.004;2022-07-23T02:48:19;19.43;;;17.83;;
1178;SDS011;578;48.408;10.004;2022-07-23T02:50:47;19.40;;;17.77;;
1178;SDS011;578;48.408;10.004;2022-07-23T02:53:14;21.90;;;19.67;;
1178;SDS011;578;48.408;10.004;2022-07-23T02:55:40;20.63;;;18.80;;
1178;SDS011;578;48.408;10.004;2022-07-23T02:58:07;20.93;;;19.23;;
1178;SDS011;578;48.408;10.004;2022-07-23T03:00:34;19.40;;;17.37;;
1178;SDS011;578;48.408;10.004;2022-07-23T03:03:00;18.37;;;16.77;;
1178;SDS011;578;48.408;10.004;2022-07-23T03:05:27;21.07;;;19.07;;
1178;SDS011;578;48.408;10.004;2022-07-23T03:07:55;19.77;;;17.70;;
1178;SDS011;578;48.408;10.004;2022-07-23T03:10:22;19.87;;;18.13;;
1178;SDS011;578;48.408;10.004;2022-07-23T03:12:48;18.77;;;17.07;;
1178;SDS011;578;48.408;10.004;2022-07-23T03:15:16;18.23;;;16.70;;
1178;SDS011;578;48.408;10.004;2022-07-23T03:17:42;20.40;;;18.70;;
1178;SDS011;578;48.408;10.004;2022-07-23T03:20:09;19.30;;;17.80;;
1178;SDS011;578;48.408;10.004;2022-07-23T03:22:36;19.93;;;18.10;;
1178;SDS011;578;48.408;10.004;2022-07-23T03:25:05;18.57;;;16.93;;
1178;SDS011;578;48.408;10.004;2022-07-23T03:27:32;20.30;;;18.50;;
1178;SDS011;578;48.408;10.004;2022-07-23T03:29:59;19.93;;;18.10;;
1178;SDS011;578;48.408;10.004;2022-07-23T03:32:26;20.27;;;18.53;;
1178;SDS011;578;48.408;10.004;2022-07-23T03:34:53;19.97;;;18.27;;
1178;SDS011;578;48.408;10.004;2022-07-23T03:37:20;19.07;;;17.47;;
1178;SDS011;578;48.408;10.004;2022-07-23T03:39:47;19.90;;;18.10;;
1178;SDS011;578;48.408;10.004;2022-07-23T03:42:15;20.10;;;18.50;;
1178;SDS011;578;48.408;10.004;2022-07-23T03:44:42;21.23;;;19.43;;
1178;SDS011;578;48.408;10.004;2022-07-23T03:47:08;23.23;;;20.83;;
1178;SDS011;578;48.408;10.004;2022-07-23T03:49:35;21.50;;;19.20;;
1178;SDS011;578;48.408;10.004;2022-07-23T03:52:02;20.90;;;19.20;;
1178;SDS011;578;48.408;10.004;2022-07-23T03:54:29;21.33;;;19.63;;
1178;SDS011;578;48.408;10.004;2022-07-23T03:56:56;21.13;;;19.03;;
1178;SDS011;578;48.408;10.004;2022-07-23T03:59:24;21.53;;;19.23;;
1178;SDS011;578;48.408;10.004;2022-07-23T04:01:50;20.97;;;19.20;;
1178;SDS011;578;48.408;10.004;2022-07-23T04:04:17;20.67;;;18.87;;
1178;SDS011;578;48.408;10.004;2022-07-23T04:06:44;19.60;;;17.77;;
1178;SDS011;578;48.408;10.004;2022-07-23T04:09:10;20.27;;;18.50;;
1178;SDS011;578;48.408;10.004;2022-07-23T04:11:37;20.50;;;18.70;;
1178;SDS011;578;48.408;10.004;2022-07-23T04:14:04;20.37;;;18.00;;
1178;SDS011;578;48.408;10.004;2022-07-23T04:16:32;19.27;;;17.63;;
1178;SDS011;578;48.408;10.004;2022-07-23T04:18:59;21.80;;;19.90;;
1178;SDS011;578;48.408;10.004;2022-07-23T04:21:26;20.30;;;18.43;;
1178;SDS011;578;48.408;10.004;2022-07-23T04:23:52;19.27;;;17.63;;
1178;SDS011;578;48.408;10.004;2022-07-23T04:26:19;17.80;;;16.30;;
1178;SDS011;578;48.408;10.004;2022-07-23T04:28:46;16.73;;;15.33;;
1178;SDS011;578;48.408;10.004;2022-07-23T04:31:13;19.63;;;18.00;;
1178;SDS011;578;48.408;10.004;2022-07-23T04:33:41;17.43;;;15.93;;
1178;SDS011;578;48.408;10.004;2022-07-23T04:36:07;17.90;;;16.40;;
1178;SDS011;578;48.408;10.004;2022-07-23T04:38:34;18.53;;;17.07;;
1178;SDS011;578;48.408;10.004;2022-07-23T04:41:01;19.73;;;17.93;;
1178;SDS011;578;48.408;10.004;2022-07-23T04:43:27;20.57;;;18.47;;
1178;SDS011;578;48.408;10.004;2022-07-23T04:45:54;19.83;;;18.10;;
1178;SDS011;578;48.408;10.004;2022-07-23T04:48:21;20.30;;;18.47;;
1178;SDS011;578;48.408;10.004;2022-07-23T04:50:49;20.27;;;18.47;;
1178;SDS011;578;48.408;10.004;2022-07-23T04:53:16;20.23;;;18.40;;
1178;SDS011;578;48.408;10.004;2022-07-23T04:55:44;20.57;;;18.83;;
1178;SDS011;578;48.408;10.004;2022-07-23T04:58:11;19.73;;;17.93;;
1178;SDS011;578;48.408;10.004;2022-07-23T05:00:38;19.63;;;17.80;;
1178;SDS011;578;48.408;10.004;2022-07-23T05:03:04;19.80;;;17.90;;
1178;SDS011;578;48.408;10.004;2022-07-23T05:05:31;19.30;;;17.47;;
1178;SDS011;578;48.408;10.004;2022-07-23T05:07:59;22.10;;;19.80;;
1178;SDS011;578;48.408;10.004;2022-07-23T05:10:26;21.93;;;20.03;;
1178;SDS011;578;48.408;10.004;2022-07-23T05:12:52;19.43;;;17.83;;
1178;SDS011;578;48.408;10.004;2022-07-23T05:15:19;20.37;;;18.53;;
1178;SDS011;578;48.408;10.004;2022-07-23T05:17:46;18.53;;;17.00;;
1178;SDS011;578;48.408;10.004;2022-07-23T05:20:13;19.50;;;17.70;;
1178;SDS011;578;48.408;10.004;2022-07-23T05:22:39;20.23;;;18.37;;
1178;SDS011;578;48.408;10.004;2022-07-23T05:25:08;19.33;;;17.83;;
1178;SDS011;578;48.408;10.004;2022-07-23T05:27:35;20.50;;;18.60;;
1178;SDS011;578;48.408;10.004;2022-07-23T05:30:02;18.63;;;17.10;;
1178;SDS011;578;48.408;10.004;2022-07-23T05:32:30;18.30;;;16.77;;
1178;SDS011;578;48.408;10.004;2022-07-23T05:34:57;18.37;;;16.87;;
1178;SDS011;578;48.408;10.004;2022-07-23T05:37:24;18.50;;;17.00;;
1178;SDS011;578;48.408;10.004;2022-07-23T05:39:50;18.83;;;17.33;;
1178;SDS011;578;48.408;10.004;2022-07-23T05:42:18;16.50;;;15.20;;
1178;SDS011;578;48.408;10.004;2022-07-23T05:44:45;17.00;;;15.33;;
1178;SDS011;578;48.408;10.004;2022-07-23T05:47:12;15.60;;;14.03;;
1178;SDS011;578;48.408;10.004;2022-07-23T05:49:38;16.33;;;14.50;;
1178;SDS011;578;48.408;10.004;2022-07-23T05:52:05;15.17;;;13.90;;
1178;SDS011;578;48.408;10.004;2022-07-23T05:54:33;15.63;;;14.40;;
1178;SDS011;578;48.408;10.004;2022-07-23T05:57:01;17.40;;;15.73;;
1178;SDS011;578;48.408;10.004;2022-07-23T05:59:29;17.97;;;16.27;;
1178;SDS011;578;48.408;10.004;2022-07-23T06:01:56;15.27;;;13.87;;
1178;SDS011;578;48.408;10.004;2022-07-23T06:04:22;16.53;;;15.03;;
1178;SDS011;578;48.408;10.004;2022-07-23T06:06:49;14.63;;;13.40;;
1178;SDS011;578;48.408;10.004;2022-07-23T06:09:16;16.60;;;14.93;;
1178;SDS011;578;48.408;10.004;2022-07-23T06:11:43;16.07;;;14.50;;
1178;SDS011;578;48.408;10.004;2022-07-23T06:14:10;14.53;;;13.33;;
1178;SDS011;578;48.408;10.004;2022-07-23T06:16:38;15.00;;;13.60;;
1178;SDS011;578;48.408;10.004;2022-07-23T06:19:04;13.67;;;12.53;;
1178;SDS011;578;48.408;10.004;2022-07-23T06:21:31;14.00;;;12.80;;
1178;SDS011;578;48.408;10.004;2022-07-23T06:23:57;13.90;;;12.80;;
1178;SDS011;578;48.408;10.004;2022-07-23T06:26:24;14.67;;;13.43;;
1178;SDS011;578;48.408;10.004;2022-07-23T06:28:51;13.00;;;12.00;;
1178;SDS011;578;48.408;10.004;2022-07-23T06:31:17;14.33;;;13.23;;
1178;SDS011;578;48.408;10.004;2022-07-23T06:33:45;13.07;;;11.87;;
1178;SDS011;578;48.408;10.004;2022-07-23T06:36:12;12.43;;;11.40;;
1178;SDS011;578;48.408;10.004;2022-07-23T06:38:40;14.00;;;12.70;;
1178;SDS011;578;48.408;10.004;2022-07-23T06:41:07;12.73;;;11.60;;
1178;SDS011;578;48.408;10.004;2022-07-23T06:43:34;12.57;;;11.50;;
1178;SDS011;578;48.408;10.004;2022-07-23T06:46:00;12.77;;;11.77;;
1178;SDS011;578;48.408;10.004;2022-07-23T06:48:27;12.37;;;11.17;;
1178;SDS011;578;48.408;10.004;2022-07-23T06:50:55;13.67;;;12.47;;
1178;SDS011;578;48.408;10.004;2022-07-23T06:53:22;14.63;;;13.20;;
1178;SDS011;578;48.408;10.004;2022-07-23T06:55:49;13.60;;;12.37;;
1178;SDS011;578;48.408;10.004;2022-07-23T06:58:16;13.17;;;11.90;;
1178;SDS011;578;48.408;10.004;2022-07-23T07:00:44;12.47;;;11.40;;
1178;SDS011;578;48.408;10.004;2022-07-23T07:03:11;12.67;;;11.53;;
1178;SDS011;578;48.408;10.004;2022-07-23T07:05:37;12.33;;;11.27;;
1178;SDS011;578;48.408;10.004;2022-07-23T07:08:06;11.63;;;10.63;;
1178;SDS011;578;48.408;10.004;2022-07-23T07:10:33;11.47;;;10.50;;
1178;SDS011;578;48.408;10.004;2022-07-23T07:13:00;11.70;;;10.60;;
1178;SDS011;578;48.408;10.004;2022-07-23T07:15:26;11.00;;;10.00;;
1178;SDS011;578;48.408;10.004;2022-07-23T07:17:53;11.30;;;10.40;;
1178;SDS011;578;48.408;10.004;2022-07-23T07:20:20;10.40;;;9.60;;
1178;SDS011;578;48.408;10.004;2022-07-23T07:22:46;10.80;;;9.97;;
1178;SDS011;578;48.408;10.004;2022-07-23T07:25:14;9.20;;;8.50;;
1178;SDS011;578;48.408;10.004;2022-07-23T07:27:41;10.53;;;9.73;;
1178;SDS011;578;48.408;10.004;2022-07-23T07:30:09;10.23;;;9.33;;
1178;SDS011;578;48.408;10.004;2022-07-23T07:32:37;10.47;;;9.67;;
1178;SDS011;578;48.408;10.004;2022-07-23T07:35:04;8.83;;;8.13;;
1178;SDS011;578;48.408;10.004;2022-07-23T07:37:31;9.93;;;9.03;;
1178;SDS011;578;48.408;10.004;2022-07-23T07:39:58;10.23;;;9.30;;
1178;SDS011;578;48.408;10.004;2022-07-23T07:42:26;9.47;;;8.57;;
1178;SDS011;578;48.408;10.004;2022-07-23T07:44:53;9.47;;;8.67;;
1178;SDS011;578;48.408;10.004;2022-07-23T07:47:20;10.27;;;8.97;;
1178;SDS011;578;48.408;10.004;2022-07-23T07:49:46;9.57;;;8.13;;
1178;SDS011;578;48.408;10.004;2022-07-23T07:52:13;9.00;;;8.30;;
1178;SDS011;578;48.408;10.004;2022-07-23T07:54:40;8.77;;;8.07;;
1178;SDS011;578;48.408;10.004;2022-07-23T07:57:07;9.67;;;8.87;;
1178;SDS011;578;48.408;10.004;2022-07-23T07:59:35;9.40;;;8.50;;
1178;SDS011;578;48.408;10.004;2022-07-23T08:02:02;10.40;;;9.40;;
1178;SDS011;578;48.408;10.004;2022-07-23T08:04:29;9.17;;;8.20;;
1178;SDS011;578;48.408;10.004;2022-07-23T08:06:55;9.40;;;8.63;;
1178;SDS011;578;48.408;10.004;2022-07-23T08:09:22;8.90;;;8.20;;
1178;SDS011;578;48.408;10.004;2022-07-23T08:11:49;8.73;;;8.03;;
1178;SDS011;578;48.408;10.004;2022-07-23T08:14:16;8.97;;;8.17;;
1178;SDS011;578;48.408;10.004;2022-07-23T08:16:44;7.53;;;7.03;;
1178;SDS011;578;48.408;10.004;2022-07-23T08:19:11;8.93;;;8.13;;
1178;SDS011;578;48.408;10.004;2022-07-23T08:21:38;8.97;;;8.27;;
1178;SDS011;578;48.408;10.004;2022-07-23T08:24:05;7.77;;;6.67;;
1178;SDS011;578;48.408;10.004;2022-07-23T08:26:31;8.63;;;7.80;;
1178;SDS011;578;48.408;10.004;2022-07-23T08:28:58;7.97;;;7.17;;
1178;SDS011;578;48.408;10.004;2022-07-23T08:31:25;7.70;;;7.20;;
1178;SDS011;578;48.408;10.004;2022-07-23T08:33:53;8.53;;;7.93;;
1178;SDS011;578;48.408;10.004;2022-07-23T08:36:21;9.07;;;8.27;;
1178;SDS011;578;48.408;10.004;2022-07-23T08:38:48;8.40;;;7.70;;
1178;SDS011;578;48.408;10.004;2022-07-23T08:41:14;8.83;;;8.03;;
1178;SDS011;578;48.408;10.004;2022-07-23T08:43:42;8.30;;;7.60;;
1178;SDS011;578;48.408;10.004;2022-07-23T08:46:10;8.33;;;7.60;;
1178;SDS011;578;48.408;10.004;2022-07-23T08:48:39;8.73;;;7.97;;
1178;SDS011;578;48.408;10.004;2022-07-23T08:51:07;9.30;;;8.50;;
1178;SDS011;578;48.408;10.004;2022-07-23T08:53:35;8.87;;;8.17;;
1178;SDS011;578;48.408;10.004;2022-07-23T08:56:04;9.40;;;8.50;;
1178;SDS011;578;48.408;10.004;2022-07-23T08:58:31;9.53;;;8.83;;
1178;SDS011;578;48.408;10.004;2022-07-23T09:00:58;10.10;;;9.03;;
1178;SDS011;578;48.408;10.004;2022-07-23T09:03:26;9.63;;;8.83;;
1178;SDS011;578;48.408;10.004;2022-07-23T09:05:53;9.37;;;8.67;;
1178;SDS011;578;48.408;10.004;2022-07-23T09:08:23;12.80;;;9.30;;
1178;SDS011;578;48.408;10.004;2022-07-23T09:10:51;9.87;;;8.87;;
1178;SDS011;578;48.408;10.004;2022-07-23T09:13:28;10.67;;;9.77;;
1178;SDS011;578;48.408;10.004;2022-07-23T09:15:58;10.03;;;9.20;;
1178;SDS011;578;48.408;10.004;2022-07-23T09:18:30;10.70;;;9.50;;
1178;SDS011;578;48.408;10.004;2022-07-23T09:21:20;10.30;;;9.40;;
1178;SDS011;578;48.408;10.004;2022-07-23T09:23:51;10.17;;;9.17;;
1178;SDS011;578;48.408;10.004;2022-07-23T09:26:27;10.67;;;9.40;;
1178;SDS011;578;48.408;10.004;2022-07-23T09:28:57;9.80;;;9.00;;
1178;SDS011;578;48.408;10.004;2022-07-23T09:31:30;10.10;;;9.20;;
1178;SDS011;578;48.408;10.004;2022-07-23T09:34:09;10.10;;;9.10;;
1178;SDS011;578;48.408;10.004;2022-07-23T09:36:38;9.77;;;8.80;;
1178;SDS011;578;48.408;10.004;2022-07-23T09:39:06;10.50;;;9.63;;
1178;SDS011;578;48.408;10.004;2022-07-23T09:41:35;9.67;;;8.90;;
1178;SDS011;578;48.408;10.004;2022-07-23T09:44:07;9.90;;;9.10;;
1178;SDS011;578;48.408;10.004;2022-07-23T09:46:35;9.57;;;8.80;;
1178;SDS011;578;48.408;10.004;2022-07-23T09:49:10;8.83;;;8.23;;
1178;SDS011;578;48.408;10.004;2022-07-23T09:51:50;10.07;;;9.20;;
1178;SDS011;578;48.408;10.004;2022-07-23T09:54:27;9.57;;;8.87;;
1178;SDS011;578;48.408;10.004;2022-07-23T09:57:00;10.20;;;9.20;;
1178;SDS011;578;48.408;10.004;2022-07-23T09:59:30;10.73;;;9.83;;
1178;SDS011;578;48.408;10.004;2022-07-23T10:01:58;10.07;;;9.27;;
1178;SDS011;578;48.408;10.004;2022-07-23T10:04:27;10.50;;;9.60;;
1178;SDS011;578;48.408;10.004;2022-07-23T10:06:56;10.00;;;9.20;;
1178;SDS011;578;48.408;10.004;2022-07-23T10:09:24;10.27;;;9.17;;
1178;SDS011;578;48.408;10.004;2022-07-23T10:11:55;9.67;;;8.87;;
1178;SDS011;578;48.408;10.004;2022-07-23T10:14:30;10.70;;;9.90;;
1178;SDS011;578;48.408;10.004;2022-07-23T10:16:58;11.30;;;10.40;;
1178;SDS011;578;48.408;10.004;2022-07-23T10:19:27;10.90;;;10.10;;
1178;SDS011;578;48.408;10.004;2022-07-23T10:21:54;10.23;;;9.37;;
1178;SDS011;578;48.408;10.004;2022-07-23T10:24:30;11.17;;;10.03;;
1178;SDS011;578;48.408;10.004;2022-07-23T10:30:04;10.57;;;9.77;;
1178;SDS011;578;48.408;10.004;2022-07-23T10:32:37;11.33;;;10.23;;
1178;SDS011;578;48.408;10.004;2022-07-23T10:35:11;9.70;;;8.73;;
1178;SDS011;578;48.408;10.004;2022-07-23T10:37:45;10.63;;;9.63;;
1178;SDS011;578;48.408;10.004;2022-07-23T10:40:16;10.90;;;10.07;;
1178;SDS011;578;48.408;10.004;2022-07-23T10:42:45;11.40;;;10.50;;
1178;SDS011;578;48.408;10.004;2022-07-23T10:48:14;10.67;;;9.87;;
1178;SDS011;578;48.408;10.004;2022-07-23T10:50:42;11.70;;;10.70;;
1178;SDS011;578;48.408;10.004;2022-07-23T10:53:13;10.87;;;10.07;;
1178;SDS011;578;48.408;10.004;2022-07-23T10:55:46;10.20;;;9.40;;
1178;SDS011;578;48.408;10.004;2022-07-23T10:58:22;10.80;;;9.80;;
1178;SDS011;578;48.408;10.004;2022-07-23T11:01:16;10.80;;;10.00;;
1178;SDS011;578;48.408;10.004;2022-07-23T11:03:57;10.57;;;9.80;;
1178;SDS011;578;48.408;10.004;2022-07-23T11:06:26;11.00;;;10.10;;
1178;SDS011;578;48.408;10.004;2022-07-23T11:09:38;10.70;;;9.90;;
1178;SDS011;578;48.408;10.004;2022-07-23T11:15:03;11.00;;;10.10;;
1178;SDS011;578;48.408;10.004;2022-07-23T11:17:33;10.30;;;9.50;;
1178;SDS011;578;48.408;10.004;2022-07-23T11:20:14;10.27;;;9.57;;
1178;SDS011;578;48.408;10.004;2022-07-23T11:22:47;10.53;;;9.73;;
1178;SDS011;578;48.408;10.004;2022-07-23T11:25:29;10.87;;;10.07;;
1178;SDS011;578;48.408;10.004;2022-07-23T11:28:14;10.73;;;10.03;;
1178;SDS011;578;48.408;10.004;2022-07-23T11:30:43;10.33;;;9.60;;
1178;SDS011;578;48.408;10.004;2022-07-23T11:33:20;10.97;;;10.17;;
1178;SDS011;578;48.408;10.004;2022-07-23T11:35:49;10.77;;;10.00;;
1178;SDS011;578;48.408;10.004;2022-07-23T11:38:27;10.73;;;9.93;;
1178;SDS011;578;48.408;10.004;2022-07-23T11:40:56;10.20;;;9.47;;
1178;SDS011;578;48.408;10.004;2022-07-23T11:43:25;10.07;;;9.23;;
1178;SDS011;578;48.408;10.004;2022-07-23T11:45:52;10.70;;;9.90;;
1178;SDS011;578;48.408;10.004;2022-07-23T11:48:21;11.13;;;10.30;;
1178;SDS011;578;48.408;10.004;2022-07-23T11:50:49;11.10;;;10.30;;
1178;SDS011;578;48.408;10.004;2022-07-23T11:53:21;11.10;;;10.20;;
1178;SDS011;578;48.408;10.004;2022-07-23T11:55:48;10.57;;;9.83;;
1178;SDS011;578;48.408;10.004;2022-07-23T11:58:15;11.53;;;10.63;;
1178;SDS011;578;48.408;10.004;2022-07-23T12:00:43;13.40;;;12.03;;
1178;SDS011;578;48.408;10.004;2022-07-23T12:03:10;14.77;;;13.30;;
1178;SDS011;578;48.408;10.004;2022-07-23T12:05:37;16.97;;;15.47;;
1178;SDS011;578;48.408;10.004;2022-07-23T12:08:06;23.40;;;18.93;;
1178;SDS011;578;48.408;10.004;2022-07-23T12:10:35;19.20;;;15.67;;
1178;SDS011;578;48.408;10.004;2022-07-23T12:13:04;18.03;;;12.30;;
1178;SDS011;578;48.408;10.004;2022-07-23T12:15:32;12.80;;;10.70;;
1178;SDS011;578;48.408;10.004;2022-07-23T12:18:04;19.87;;;13.60;;
1178;SDS011;578;48.408;10.004;2022-07-23T12:20:32;13.17;;;11.93;;
1178;SDS011;578;48.408;10.004;2022-07-23T12:23:00;17.30;;;9.93;;
1178;SDS011;578;48.408;10.004;2022-07-23T12:25:30;9.83;;;8.73;;
1178;SDS011;578;48.408;10.004;2022-07-23T12:28:00;9.13;;;8.23;;
1178;SDS011;578;48.408;10.004;2022-07-23T12:30:29;8.20;;;7.50;;
1178;SDS011;578;48.408;10.004;2022-07-23T12:32:59;8.77;;;7.87;;
1178;SDS011;578;48.408;10.004;2022-07-23T12:35:32;8.10;;;7.40;;
1178;SDS011;578;48.408;10.004;2022-07-23T12:38:03;8.00;;;7.37;;
1178;SDS011;578;48.408;10.004;2022-07-23T12:40:31;8.00;;;7.30;;
1178;SDS011;578;48.408;10.004;2022-07-23T12:43:00;10.27;;;9.30;;
1178;SDS011;578;48.408;10.004;2022-07-23T12:45:41;8.83;;;8.00;;
1178;SDS011;578;48.408;10.004;2022-07-23T12:48:15;10.10;;;9.23;;
1178;SDS011;578;48.408;10.004;2022-07-23T12:50:57;9.77;;;8.97;;
1178;SDS011;578;48.408;10.004;2022-07-23T12:53:26;8.97;;;8.20;;
1178;SDS011;578;48.408;10.004;2022-07-23T12:56:01;10.43;;;9.43;;
1178;SDS011;578;48.408;10.004;2022-07-23T12:58:41;9.80;;;9.00;;
1178;SDS011;578;48.408;10.004;2022-07-23T13:01:21;9.33;;;8.57;;
1178;SDS011;578;48.408;10.004;2022-07-23T13:03:55;9.27;;;8.50;;
1178;SDS011;578;48.408;10.004;2022-07-23T13:06:28;10.10;;;9.30;;
1178;SDS011;578;48.408;10.004;2022-07-23T13:08:56;8.83;;;8.20;;
1178;SDS011;578;48.408;10.004;2022-07-23T13:11:23;8.97;;;8.27;;
1178;SDS011;578;48.408;10.004;2022-07-23T13:13:49;8.60;;;7.90;;
1178;SDS011;578;48.408;10.004;2022-07-23T13:16:16;10.17;;;9.27;;
1178;SDS011;578;48.408;10.004;2022-07-23T13:18:43;10.73;;;8.97;;
1178;SDS011;578;48.408;10.004;2022-07-23T13:21:10;8.30;;;7.70;;
1178;SDS011;578;48.408;10.004;2022-07-23T13:23:38;8.33;;;7.73;;
1178;SDS011;578;48.408;10.004;2022-07-23T13:26:05;7.70;;;7.10;;
1178;SDS011;578;48.408;10.004;2022-07-23T13:28:31;8.63;;;8.03;;
1178;SDS011;578;48.408;10.004;2022-07-23T13:30:58;8.87;;;8.10;;
1178;SDS011;578;48.408;10.004;2022-07-23T13:33:25;8.93;;;8.23;;
1178;SDS011;578;48.408;10.004;2022-07-23T13:35:52;9.67;;;8.87;;
1178;SDS011;578;48.408;10.004;2022-07-23T13:38:19;10.83;;;9.63;;
1178;SDS011;578;48.408;10.004;2022-07-23T13:40:49;11.07;;;10.17;;
1178;SDS011;578;48.408;10.004;2022-07-23T13:43:19;11.00;;;10.00;;
1178;SDS011;578;48.408;10.004;2022-07-23T13:45:47;12.00;;;10.90;;
1178;SDS011;578;48.408;10.004;2022-07-23T13:48:15;11.67;;;10.77;;
1178;SDS011;578;48.408;10.004;2022-07-23T13:50:42;11.73;;;10.80;;
1178;SDS011;578;48.408;10.004;2022-07-23T13:53:11;12.70;;;11.50;;
1178;SDS011;578;48.408;10.004;2022-07-23T13:55:39;12.57;;;11.47;;
1178;SDS011;578;48.408;10.004;2022-07-23T13:58:08;12.37;;;11.47;;
1178;SDS011;578;48.408;10.004;2022-07-23T14:00:37;12.97;;;11.77;;
1178;SDS011;578;48.408;10.004;2022-07-23T14:03:05;13.00;;;12.03;;
1178;SDS011;578;48.408;10.004;2022-07-23T14:05:32;13.03;;;11.73;;
1178;SDS011;578;48.408;10.004;2022-07-23T14:07:59;12.27;;;11.37;;
1178;SDS011;578;48.408;10.004;2022-07-23T14:10:26;11.90;;;11.00;;
1178;SDS011;578;48.408;10.004;2022-07-23T14:12:53;12.93;;;11.87;;
1178;SDS011;578;48.408;10.004;2022-07-23T14:15:22;12.97;;;11.87;;
1178;SDS011;578;48.408;10.004;2022-07-23T14:17:49;12.10;;;11.20;;
1178;SDS011;578;48.408;10.004;2022-07-23T14:20:16;12.80;;;11.70;;
1178;SDS011;578;48.408;10.004;2022-07-23T14:22:43;12.10;;;11.10;;
1178;SDS011;578;48.408;10.004;2022-07-23T14:25:10;12.87;;;11.70;;
1178;SDS011;578;48.408;10.004;2022-07-23T14:27:37;13.43;;;12.33;;
1178;SDS011;578;48.408;10.004;2022-07-23T14:30:05;13.10;;;12.10;;
1178;SDS011;578;48.408;10.004;2022-07-23T14:32:35;12.17;;;11.20;;
1178;SDS011;578;48.408;10.004;2022-07-23T14:35:02;13.37;;;11.73;;
1178;SDS011;578;48.408;10.004;2022-07-23T14:37:30;12.37;;;11.23;;
1178;SDS011;578;48.408;10.004;2022-07-23T14:39:56;11.57;;;10.67;;
1178;SDS011;578;48.408;10.004;2022-07-23T14:42:24;11.20;;;10.40;;
1178;SDS011;578;48.408;10.004;2022-07-23T14:44:51;12.40;;;11.30;;
1178;SDS011;578;48.408;10.004;2022-07-23T14:47:17;12.60;;;11.70;;
1178;SDS011;578;48.408;10.004;2022-07-23T14:49:45;12.97;;;11.57;;
1178;SDS011;578;48.408;10.004;2022-07-23T14:52:12;14.03;;;12.73;;
1178;SDS011;578;48.408;10.004;2022-07-23T14:54:39;13.10;;;11.77;;
1178;SDS011;578;48.408;10.004;2022-07-23T14:57:05;12.80;;;11.70;;
1178;SDS011;578;48.408;10.004;2022-07-23T14:59:34;13.07;;;11.90;;
1178;SDS011;578;48.408;10.004;2022-07-23T15:02:00;13.33;;;12.33;;
1178;SDS011;578;48.408;10.004;2022-07-23T15:04:27;11.80;;;11.00;;
1178;SDS011;578;48.408;10.004;2022-07-23T15:06:55;13.17;;;12.07;;
1178;SDS011;578;48.408;10.004;2022-07-23T15:09:22;13.57;;;12.27;;
1178;SDS011;578;48.408;10.004;2022-07-23T15:11:49;13.33;;;12.27;;